Startpagina
METAR-TAF:

METAR-TAF

Vliegvelden :

Albert, Frankrijk

breedte: 49-58-21N, lengte: 002-41-29E, hoogte: 111 m

Actueel weer

Dit bericht is 16 minuten geleden gemaakt, om 07:00 UTC
Wind 6 kt uit het noorden
Temperatuur 6°C
Vochtigheid 100%
Druk 1030 hPa
Zicht: 2200 m
nevel

METAR: LFAQ 200700Z AUTO 01006KT 2200 BR NSC 06/06 Q1030 TEMPO 0500 FG VV///

Tijdstip: 09:16 (07:16 UTC)

Verwachting

Dit bericht is 2 uur en het 16 minuten geleden gemaakt, om 05:00 UTC
Verwachting geldig van 20 om 06 UTC tot 20 om 15 UTC
Wind 7 kt uit het noordoosten
Zicht: 3000 m
nevel
Wijzigt naar
van 20 om 06 UTC tot 20 om 08 UTC
Gebroken wolken op 200 ft
Kans 30%
van 20 om 07 UTC tot 20 om 09 UTC
Zicht: 0500 m
mist
Wijzigt naar
van 20 om 09 UTC tot 20 om 12 UTC
Zicht: 8000 m

TAF: LFAQ 200500Z 2006/2015 04007KT 3000 BR NSC BECMG 2006/2008 BKN002 PROB30 2007/2009 0500 FG VV/// BECMG 2009/2012 8000 NSW NSC

Waarnemingen en weersverwachtingen van meer dan 4000 vliegvelden (METAR en TAF).

De beschikbare stations zijn de gele en rode punten op de kaart.

Ga met uw muis naar het station om de naam te zien.

Klik dan om waarnemingen en weersverwachtingen te zien.

kaart wijzigen: klik op de groene knoppen met een zwart kruis om in te zoomen, op de groene knop met een streepje om uit te zoomen of op de groene pijlen voor aangrenzende kaarten.


METAR-TAF: